Terminal Aerodrome Forecast
Issued by NWS Twin Cities, MN

Home | Current Version | Previous Version | Text Only | Print | Product List | Glossary Off
Versions: 1 2 3 4 5 6 7 8 9 10 11 12 13 14 15 16 17 18 19 20 21

000
FTUS43 KMPX 081740
TAFSTC
TAF
KSTC 081740Z 0818/0918 30010KT P6SM SCT012 OVC110
     FM082200 28014KT P6SM VCSH BKN025 OVC045
     FM090200 31020G32KT P6SM OVC025
     FM090700 33012G21KT P6SM BKN025
     FM091200 32011KT P6SM BKN025=

USA.gov is the U.S. government's official web portal to all federal, state and local government web resources and services.